createdAt,value
2019-01-21T00:00:45.729Z,-2.25
2019-01-21T00:06:01.141Z,-2.29
2019-01-21T00:11:23.312Z,-2.43
2019-01-21T00:16:45.483Z,-2.37
2019-01-21T00:21:48.157Z,-2.36
2019-01-21T00:27:10.450Z,-2.42
2019-01-21T00:32:32.656Z,-2.37
2019-01-21T00:37:54.838Z,-2.40
2019-01-21T00:42:57.499Z,-2.46
2019-01-21T00:48:00.155Z,-2.40
2019-01-21T00:53:22.330Z,-2.45
2019-01-21T00:58:44.509Z,-2.49
2019-01-21T01:04:06.695Z,-2.52
2019-01-21T01:09:22.126Z,-2.70
2019-01-21T01:14:24.862Z,-2.58
2019-01-21T01:19:47.070Z,-2.56
2019-01-21T01:25:09.410Z,-2.66
2019-01-21T01:30:31.613Z,-5.35
2019-01-21T01:35:53.803Z,-2.74
2019-01-21T01:41:15.979Z,-2.71
2019-01-21T01:46:38.158Z,-2.64
2019-01-21T01:52:00.965Z,-2.65
2019-01-21T01:57:03.825Z,-3.91
2019-01-21T02:02:26.000Z,-2.75
2019-01-21T02:07:41.430Z,-4.99
2019-01-21T02:13:03.943Z,-2.80
2019-01-21T02:18:26.121Z,-2.97
2019-01-21T02:24:30.639Z,-2.95
2019-01-21T02:30:31.823Z,-2.92
2019-01-21T02:36:20.605Z,-4.34
2019-01-21T02:41:58.929Z,-3.44
2019-01-21T02:48:00.058Z,-3.30
2019-01-21T02:53:57.403Z,-3.28
2019-01-21T02:59:46.053Z,-3.20
2019-01-21T03:05:07.080Z,-3.87
2019-01-21T03:11:02.511Z,-3.00
2019-01-21T03:16:44.184Z,-2.85
2019-01-21T03:22:52.342Z,-2.73
2019-01-21T03:35:15.753Z,-2.73
2019-01-21T03:53:30.763Z,-2.77
2019-01-21T03:59:24.907Z,-2.83
2019-01-21T04:05:26.244Z,-2.88
2019-01-21T04:17:49.715Z,-2.90
2019-01-21T04:23:50.884Z,-2.92
2019-01-21T04:29:52.067Z,-2.89
2019-01-21T04:35:53.278Z,-3.05
2019-01-21T04:41:54.536Z,-2.94
2019-01-21T04:47:55.711Z,-4.97
2019-01-21T04:53:56.889Z,-3.04
2019-01-21T04:59:58.104Z,-3.00
2019-01-21T05:05:32.518Z,-2.94
2019-01-21T05:11:40.886Z,-2.90
2019-01-21T05:17:45.207Z,-4.80
2019-01-21T05:23:23.884Z,-2.89
2019-01-21T05:29:25.079Z,-4.81
2019-01-21T05:35:26.265Z,-2.83
2019-01-21T05:41:27.468Z,-3.03
2019-01-21T05:47:28.642Z,-2.72
2019-01-21T05:53:42.289Z,-5.54
2019-01-21T05:59:43.468Z,-2.89
2019-01-21T06:05:44.683Z,-3.87
2019-01-21T06:11:29.350Z,-2.76
2019-01-21T06:17:19.193Z,-2.93
2019-01-21T06:23:20.568Z,-2.89
2019-01-21T06:29:07.949Z,-2.93
2019-01-21T06:35:09.137Z,-3.03
2019-01-21T06:40:57.008Z,-2.93
2019-01-21T06:53:20.038Z,-5.11
2019-01-21T07:05:35.506Z,-2.71
2019-01-21T07:11:23.239Z,-2.81
2019-01-21T07:17:24.697Z,-4.57
2019-01-21T07:23:25.895Z,-2.76
2019-01-21T07:29:14.701Z,-2.73
2019-01-21T07:35:15.867Z,-2.79
2019-01-21T07:41:17.055Z,-2.86
2019-01-21T07:47:18.212Z,-2.86
2019-01-21T07:53:26.156Z,-2.79
2019-01-21T07:59:27.325Z,-2.56
2019-01-21T08:05:28.614Z,-2.32
2019-01-21T08:11:31.293Z,-2.19
2019-01-21T08:17:32.459Z,-1.94
2019-01-21T08:23:23.943Z,-1.72
2019-01-21T08:29:09.188Z,-1.51
2019-01-21T08:35:10.374Z,-1.32
2019-01-21T08:40:43.325Z,-3.65
2019-01-21T08:46:44.519Z,-1.11
2019-01-21T08:52:33.777Z,-1.02
2019-01-21T08:58:35.019Z,-0.80
2019-01-21T09:04:36.205Z,-0.68
2019-01-21T09:10:11.208Z,-0.56
2019-01-21T09:16:00.659Z,-0.44
2019-01-21T09:22:01.828Z,-0.34
2019-01-21T09:28:03.042Z,-0.23
2019-01-21T09:34:04.212Z,-0.47
2019-01-21T09:39:50.155Z,-0.02
2019-01-21T09:45:54.131Z,0.16
2019-01-21T09:51:16.411Z,0.24
2019-01-21T09:56:39.064Z,0.37
2019-01-21T10:02:44.226Z,0.52
2019-01-21T10:08:19.107Z,0.70
2019-01-21T10:14:20.294Z,0.75
2019-01-21T10:20:06.132Z,0.98
2019-01-21T10:25:48.728Z,0.44
2019-01-21T10:31:49.932Z,1.30
2019-01-21T10:37:51.126Z,0.35
2019-01-21T10:43:52.337Z,1.48
2019-01-21T10:49:47.209Z,1.62
2019-01-21T10:55:36.884Z,0.70
2019-01-21T11:01:38.069Z,1.82
2019-01-21T11:07:16.004Z,2.00
2019-01-21T11:13:17.193Z,1.43
2019-01-21T11:19:01.458Z,2.23
2019-01-21T11:25:02.631Z,2.23
2019-01-21T11:31:03.865Z,2.16
2019-01-21T11:37:05.027Z,2.29
2019-01-21T11:43:06.237Z,2.51
2019-01-21T11:49:07.464Z,2.73
2019-01-21T11:54:56.554Z,2.82
2019-01-21T12:00:58.277Z,3.03
2019-01-21T12:06:24.124Z,3.13
2019-01-21T12:12:01.315Z,1.48
2019-01-21T12:18:02.530Z,3.26
2019-01-21T12:24:04.146Z,3.12
2019-01-21T12:30:05.657Z,3.33
2019-01-21T12:36:07.054Z,3.52
2019-01-21T12:42:08.290Z,3.05
2019-01-21T12:47:56.865Z,2.21
2019-01-21T12:53:58.115Z,3.05
2019-01-21T13:05:49.177Z,3.82
2019-01-21T13:11:38.379Z,3.95
2019-01-21T13:17:39.615Z,3.98
2019-01-21T13:23:40.820Z,3.95
2019-01-21T13:29:25.088Z,4.04
2019-01-21T13:35:19.321Z,4.12
2019-01-21T13:41:23.291Z,1.69
2019-01-21T13:47:24.477Z,1.91
2019-01-21T13:53:25.694Z,3.44
2019-01-21T13:59:26.873Z,4.36
2019-01-21T14:05:31.145Z,2.96
2019-01-21T14:11:31.234Z,4.54
2019-01-21T14:17:32.397Z,4.48
2019-01-21T14:23:33.602Z,4.47
2019-01-21T14:29:22.051Z,4.44
2019-01-21T14:35:23.231Z,4.20
2019-01-21T14:41:24.424Z,4.07
2019-01-21T14:47:11.118Z,3.97
2019-01-21T14:53:03.387Z,3.88
2019-01-21T14:59:04.585Z,3.78
2019-01-21T15:04:38.749Z,3.68
2019-01-21T15:10:13.205Z,3.53
2019-01-21T15:16:02.326Z,1.84
2019-01-21T15:21:48.267Z,3.36
2019-01-21T15:27:52.298Z,3.27
2019-01-21T15:33:53.577Z,3.14
2019-01-21T15:39:38.554Z,0.65
2019-01-21T15:45:25.328Z,1.18
2019-01-21T15:51:05.106Z,2.75
2019-01-21T15:56:50.175Z,2.58
2019-01-21T16:02:39.069Z,2.50
2019-01-21T16:08:06.993Z,2.38
2019-01-21T16:14:12.552Z,2.32
2019-01-21T16:19:56.012Z,2.24
2019-01-21T16:25:57.229Z,2.19
2019-01-21T16:31:33.927Z,2.11
2019-01-21T16:37:35.104Z,-0.11
2019-01-21T16:42:57.293Z,0.00
2019-01-21T16:48:19.540Z,1.77
2019-01-21T16:53:41.744Z,1.73
2019-01-21T17:04:36.031Z,1.69
2019-01-21T17:09:50.920Z,0.86
2019-01-21T17:15:13.238Z,0.64
2019-01-21T17:20:18.841Z,1.73
2019-01-21T17:25:41.053Z,1.94
2019-01-21T17:31:03.270Z,2.13
2019-01-21T17:36:25.473Z,2.22
2019-01-21T17:58:13.294Z,2.00
2019-01-21T18:08:56.990Z,2.61
2019-01-21T18:14:19.165Z,2.37
2019-01-21T18:19:41.447Z,1.28
2019-01-21T18:25:04.472Z,2.83
2019-01-21T18:30:27.176Z,2.75
2019-01-21T18:35:49.366Z,0.88
2019-01-21T18:41:11.788Z,2.92
2019-01-21T18:46:34.033Z,2.98
2019-01-21T18:51:36.697Z,3.01
2019-01-21T18:56:58.880Z,2.97
2019-01-21T19:02:01.621Z,1.13
2019-01-21T19:07:17.552Z,3.15
2019-01-21T19:12:39.842Z,3.25
2019-01-21T19:18:24.776Z,3.28
2019-01-21T19:23:47.301Z,3.33
2019-01-21T19:29:09.478Z,0.97
2019-01-21T19:34:31.706Z,3.27
2019-01-21T19:39:34.393Z,3.18
2019-01-21T19:44:37.312Z,3.02
2019-01-21T19:49:39.993Z,3.00
2019-01-21T19:55:02.219Z,3.04
2019-01-21T20:00:25.696Z,3.04
2019-01-21T20:05:41.070Z,3.07
2019-01-21T20:11:03.298Z,1.23
2019-01-21T20:16:25.537Z,3.12
2019-01-21T20:21:47.741Z,3.15
2019-01-21T20:27:09.933Z,1.53
2019-01-21T20:32:32.126Z,1.65
2019-01-21T20:37:54.368Z,3.25
2019-01-21T20:43:16.542Z,3.27
2019-01-21T20:48:38.739Z,3.27
2019-01-21T20:54:02.334Z,3.29
2019-01-21T20:59:25.905Z,1.62
2019-01-21T21:04:49.311Z,3.35
2019-01-21T21:09:53.276Z,3.42
2019-01-21T21:15:17.913Z,3.37
2019-01-21T21:20:40.955Z,3.44
2019-01-21T21:26:04.674Z,3.45
2019-01-21T21:31:29.907Z,3.45
2019-01-21T21:36:52.885Z,3.49
2019-01-21T21:42:16.569Z,3.53
2019-01-21T21:47:19.396Z,1.63
2019-01-21T21:52:27.816Z,3.45
2019-01-21T21:57:26.667Z,3.46
2019-01-21T22:02:29.354Z,3.47
2019-01-21T22:07:44.499Z,3.48
2019-01-21T22:12:47.306Z,3.50
2019-01-21T22:18:09.603Z,3.53
2019-01-21T22:23:31.788Z,3.53
2019-01-21T22:28:53.987Z,1.59
2019-01-21T22:33:56.659Z,1.16
2019-01-21T22:39:18.825Z,3.32
2019-01-21T22:44:41.019Z,3.43
2019-01-21T22:50:04.252Z,3.47
2019-01-21T22:55:26.587Z,3.55
2019-01-21T23:01:27.888Z,3.57
2019-01-21T23:06:43.553Z,2.05
2019-01-21T23:12:05.748Z,3.52
2019-01-21T23:17:28.091Z,3.52
2019-01-21T23:22:50.299Z,3.62
2019-01-21T23:28:12.513Z,3.58
2019-01-21T23:33:34.713Z,1.20
2019-01-21T23:38:56.909Z,3.57
2019-01-21T23:43:59.685Z,2.75
2019-01-21T23:49:02.581Z,3.44
2019-01-21T23:54:25.204Z,3.52
2019-01-21T23:59:47.400Z,1.71
